createdAt,value
2023-05-19T00:01:19.089Z,57.65
2023-05-19T00:03:54.044Z,58.04
2023-05-19T00:06:26.866Z,57.58
2023-05-19T00:09:01.761Z,60.36
2023-05-19T00:11:29.812Z,58.17
2023-05-19T00:13:58.493Z,58.65
2023-05-19T00:16:27.647Z,58.85
2023-05-19T00:18:54.400Z,59.28
2023-05-19T00:21:21.086Z,58.91
2023-05-19T00:23:47.628Z,59.00
2023-05-19T00:26:15.923Z,59.55
2023-05-19T00:28:43.526Z,59.69
2023-05-19T00:31:10.223Z,59.73
2023-05-19T00:33:36.725Z,60.56
2023-05-19T00:36:04.093Z,60.93
2023-05-19T00:38:32.143Z,60.59
2023-05-19T00:40:59.928Z,61.24
2023-05-19T00:43:26.973Z,61.82
2023-05-19T00:45:53.697Z,63.17
2023-05-19T00:48:20.912Z,61.21
2023-05-19T00:50:48.514Z,61.92
2023-05-19T00:53:17.503Z,61.26
2023-05-19T00:55:44.226Z,61.82
2023-05-19T00:58:12.658Z,60.96
2023-05-19T01:00:39.810Z,61.92
2023-05-19T01:03:13.368Z,62.54
2023-05-19T01:05:41.772Z,62.62
2023-05-19T01:08:09.078Z,61.35
2023-05-19T01:10:35.665Z,62.65
2023-05-19T01:13:04.512Z,63.37
2023-05-19T01:15:37.795Z,64.14
2023-05-19T01:18:13.857Z,63.61
2023-05-19T01:20:48.182Z,64.75
2023-05-19T01:23:23.970Z,62.77
2023-05-19T01:26:09.303Z,62.66
2023-05-19T01:29:16.360Z,64.50
2023-05-19T01:31:47.840Z,62.23
2023-05-19T01:34:15.301Z,61.62
2023-05-19T01:36:45.126Z,62.78
2023-05-19T01:39:12.413Z,62.52
2023-05-19T01:41:41.696Z,63.00
2023-05-19T01:44:08.849Z,62.62
2023-05-19T01:46:38.118Z,62.11
2023-05-19T01:49:06.473Z,62.69
2023-05-19T01:51:33.118Z,62.09
2023-05-19T01:53:59.677Z,62.98
2023-05-19T01:56:46.746Z,60.88
2023-05-19T01:59:47.726Z,61.25
2023-05-19T02:02:43.833Z,61.90
2023-05-19T02:05:29.578Z,62.18
2023-05-19T02:08:13.087Z,62.17
2023-05-19T02:10:43.658Z,62.25
2023-05-19T02:13:13.634Z,62.14
2023-05-19T02:15:45.448Z,61.96
2023-05-19T02:18:12.496Z,62.83
2023-05-19T02:20:40.140Z,61.83
2023-05-19T02:23:07.194Z,61.12
2023-05-19T02:25:33.924Z,63.64
2023-05-19T02:28:00.480Z,64.14
2023-05-19T02:30:27.010Z,62.90
2023-05-19T02:32:54.324Z,64.21
2023-05-19T02:35:21.450Z,64.32
2023-05-19T02:37:49.044Z,64.28
2023-05-19T02:40:15.623Z,65.05
2023-05-19T02:42:42.139Z,64.61
2023-05-19T02:45:08.899Z,64.79
2023-05-19T02:47:36.894Z,65.65
2023-05-19T02:50:04.844Z,64.78
2023-05-19T02:52:31.407Z,65.55
2023-05-19T02:54:57.918Z,65.66
2023-05-19T02:57:24.489Z,66.13
2023-05-19T02:59:51.126Z,65.83
2023-05-19T03:02:17.706Z,66.43
2023-05-19T03:04:44.264Z,66.85
2023-05-19T03:07:10.953Z,68.03
2023-05-19T03:09:37.952Z,67.43
2023-05-19T03:12:06.538Z,67.92
2023-05-19T03:14:37.319Z,69.14
2023-05-19T03:17:04.110Z,69.32
2023-05-19T03:19:32.517Z,70.84
2023-05-19T03:21:59.039Z,70.58
2023-05-19T03:24:25.632Z,70.79
2023-05-19T03:26:52.280Z,71.42
2023-05-19T03:29:18.824Z,71.91
2023-05-19T03:31:45.500Z,71.47
2023-05-19T03:34:12.002Z,71.48
2023-05-19T03:36:41.068Z,71.71
2023-05-19T03:39:07.619Z,72.57
2023-05-19T03:41:35.159Z,72.42
2023-05-19T03:44:01.679Z,72.06
2023-05-19T03:46:28.472Z,72.90
2023-05-19T03:48:56.145Z,71.69
2023-05-19T03:51:22.663Z,71.28
2023-05-19T03:53:49.198Z,71.77
2023-05-19T03:56:18.108Z,72.18
2023-05-19T03:58:45.092Z,72.00
2023-05-19T04:01:11.806Z,71.35
2023-05-19T04:03:38.479Z,70.55
2023-05-19T04:06:05.035Z,71.41
2023-05-19T04:08:32.148Z,71.32
2023-05-19T04:10:58.734Z,70.58
2023-05-19T04:13:25.439Z,71.54
2023-05-19T04:15:52.231Z,69.68
2023-05-19T04:18:19.430Z,69.40
2023-05-19T04:20:45.928Z,68.78
2023-05-19T04:23:14.420Z,69.35
2023-05-19T04:25:41.890Z,68.82
2023-05-19T04:28:08.438Z,69.11
2023-05-19T04:30:35.265Z,67.69
2023-05-19T04:33:03.556Z,66.81
2023-05-19T04:35:30.160Z,66.39
2023-05-19T04:37:56.829Z,66.14
2023-05-19T04:40:23.906Z,67.43
2023-05-19T04:42:52.290Z,67.27
2023-05-19T04:45:18.977Z,68.89
2023-05-19T04:47:48.125Z,67.66
2023-05-19T04:50:16.725Z,66.72
2023-05-19T04:52:45.471Z,67.66
2023-05-19T04:55:13.025Z,66.20
2023-05-19T04:57:39.998Z,68.29
2023-05-19T05:00:12.170Z,68.86
2023-05-19T05:02:38.792Z,68.33
2023-05-19T05:05:05.806Z,67.36
2023-05-19T05:07:32.684Z,67.37
2023-05-19T05:09:59.711Z,67.82
2023-05-19T05:12:26.649Z,68.09
2023-05-19T05:14:53.488Z,67.00
2023-05-19T05:17:20.555Z,66.19
2023-05-19T05:19:48.485Z,66.41
2023-05-19T05:22:15.429Z,64.76
2023-05-19T05:24:42.193Z,65.21
2023-05-19T05:27:10.212Z,66.10
2023-05-19T05:29:36.953Z,66.25
2023-05-19T05:32:03.648Z,65.17
2023-05-19T05:34:30.196Z,65.21
2023-05-19T05:36:56.715Z,67.04
2023-05-19T05:39:23.200Z,65.70
2023-05-19T05:41:49.684Z,64.75
2023-05-19T05:44:16.182Z,64.79
2023-05-19T05:46:42.955Z,65.17
2023-05-19T05:49:09.800Z,64.64
2023-05-19T05:51:36.620Z,64.70
2023-05-19T05:54:06.182Z,64.58
2023-05-19T05:56:37.063Z,65.18
2023-05-19T05:59:03.657Z,63.81
2023-05-19T06:01:35.448Z,64.70
2023-05-19T06:04:02.208Z,64.39
2023-05-19T06:06:28.831Z,64.42
2023-05-19T06:08:55.367Z,65.93
2023-05-19T06:11:21.952Z,64.20
2023-05-19T06:13:48.456Z,64.47
2023-05-19T06:16:14.991Z,63.91
2023-05-19T06:18:42.589Z,63.74
2023-05-19T06:21:10.395Z,63.08
2023-05-19T06:23:37.087Z,61.64
2023-05-19T06:26:03.667Z,61.63
2023-05-19T06:28:30.261Z,62.26
2023-05-19T06:30:56.828Z,61.03
2023-05-19T06:33:23.323Z,60.99
2023-05-19T06:35:49.864Z,61.79
2023-05-19T06:38:16.433Z,62.98
2023-05-19T06:40:43.993Z,60.89
2023-05-19T06:43:10.520Z,61.18
2023-05-19T06:45:37.098Z,61.39
2023-05-19T06:48:04.799Z,60.37
2023-05-19T06:50:31.854Z,60.80
2023-05-19T06:52:58.598Z,60.78
2023-05-19T06:55:25.169Z,60.74
2023-05-19T06:57:51.676Z,60.19
2023-05-19T07:00:19.946Z,59.50
2023-05-19T07:02:48.572Z,59.41
2023-05-19T07:05:15.235Z,60.49
2023-05-19T07:07:42.445Z,58.90
2023-05-19T07:10:09.838Z,59.08
2023-05-19T07:12:36.347Z,57.42
2023-05-19T07:15:03.100Z,57.79
2023-05-19T07:17:30.692Z,55.85
2023-05-19T07:19:57.191Z,57.21
2023-05-19T07:22:24.221Z,57.44
2023-05-19T07:24:51.190Z,55.73
2023-05-19T07:27:17.727Z,56.63
2023-05-19T07:29:44.319Z,56.22
2023-05-19T07:32:10.869Z,56.54
2023-05-19T07:34:37.663Z,55.34
2023-05-19T07:37:04.309Z,55.62
2023-05-19T07:39:32.312Z,55.11
2023-05-19T07:41:59.390Z,53.63
2023-05-19T07:44:27.119Z,53.38
2023-05-19T07:46:54.757Z,51.93
2023-05-19T07:49:21.279Z,51.28
2023-05-19T07:51:47.818Z,49.77
2023-05-19T07:54:14.498Z,49.49
2023-05-19T07:56:41.767Z,48.76
2023-05-19T07:59:08.317Z,48.85
2023-05-19T08:01:34.942Z,49.45
2023-05-19T08:04:01.561Z,50.09
2023-05-19T08:06:30.051Z,50.06
2023-05-19T08:08:56.585Z,50.19
2023-05-19T08:11:24.142Z,49.49
2023-05-19T08:13:50.964Z,48.85
2023-05-19T08:16:17.738Z,47.83
2023-05-19T08:18:44.390Z,48.04
2023-05-19T08:21:11.015Z,47.21
2023-05-19T08:23:38.402Z,48.18
2023-05-19T08:26:05.491Z,48.79
2023-05-19T08:28:32.199Z,49.08
2023-05-19T08:30:58.827Z,49.01
2023-05-19T08:33:25.575Z,49.08
2023-05-19T08:35:52.102Z,49.22
2023-05-19T08:38:18.600Z,48.51
2023-05-19T08:40:47.721Z,48.77
2023-05-19T08:43:14.612Z,47.96
2023-05-19T08:45:45.462Z,49.14
2023-05-19T08:48:13.674Z,49.53
2023-05-19T08:50:42.630Z,49.57
2023-05-19T08:53:32.520Z,48.15
2023-05-19T08:56:36.277Z,47.09
2023-05-19T08:59:04.157Z,46.26
2023-05-19T09:01:31.286Z,47.02
2023-05-19T09:03:58.573Z,46.78
2023-05-19T09:06:26.292Z,47.08
2023-05-19T09:08:53.006Z,46.63
2023-05-19T09:11:19.593Z,47.13
2023-05-19T09:13:46.130Z,46.15
2023-05-19T09:16:13.361Z,46.32
2023-05-19T09:18:40.947Z,43.55
2023-05-19T09:21:07.992Z,44.20
2023-05-19T09:23:34.672Z,43.81
2023-05-19T09:26:07.765Z,43.75
2023-05-19T09:28:36.684Z,40.39
2023-05-19T09:31:04.957Z,41.85
2023-05-19T09:33:36.852Z,42.54
2023-05-19T09:36:06.464Z,42.94
2023-05-19T09:38:33.096Z,43.33
2023-05-19T09:41:01.042Z,43.99
2023-05-19T09:43:33.386Z,42.66
2023-05-19T09:46:03.930Z,42.15
2023-05-19T09:48:30.543Z,41.02
2023-05-19T09:50:58.128Z,42.58
2023-05-19T09:53:27.857Z,43.04
2023-05-19T09:56:00.299Z,41.19
2023-05-19T09:58:27.119Z,41.83
2023-05-19T10:00:54.888Z,41.35
2023-05-19T10:03:25.419Z,40.75
2023-05-19T10:05:53.240Z,41.86
2023-05-19T10:08:20.266Z,41.55
2023-05-19T10:10:47.832Z,42.45
2023-05-19T10:13:16.537Z,40.11
2023-05-19T10:15:57.166Z,40.91
2023-05-19T10:18:26.611Z,39.70
2023-05-19T10:20:54.290Z,41.00
2023-05-19T10:23:21.169Z,41.38
2023-05-19T10:25:49.279Z,40.71
2023-05-19T10:28:21.337Z,38.84
2023-05-19T10:30:53.415Z,39.39
2023-05-19T10:33:24.117Z,39.53
2023-05-19T10:36:15.882Z,39.43
2023-05-19T10:38:48.322Z,38.36
2023-05-19T10:41:32.105Z,39.98
2023-05-19T10:44:22.992Z,41.70
2023-05-19T10:46:50.602Z,40.91
2023-05-19T10:49:22.015Z,39.49
2023-05-19T10:51:50.104Z,41.69
2023-05-19T10:54:18.413Z,40.20
2023-05-19T10:56:47.892Z,40.07
2023-05-19T10:59:35.946Z,39.16
2023-05-19T11:02:08.280Z,40.37
2023-05-19T11:04:51.951Z,40.04
2023-05-19T11:07:20.497Z,39.96
2023-05-19T11:09:53.757Z,38.37
2023-05-19T11:12:25.045Z,38.25
2023-05-19T11:14:55.509Z,39.48
2023-05-19T11:17:25.046Z,39.54
2023-05-19T11:19:56.053Z,38.51
2023-05-19T11:22:25.034Z,39.47
2023-05-19T11:24:54.584Z,38.74
2023-05-19T11:27:38.491Z,38.27
2023-05-19T11:30:11.732Z,38.91
2023-05-19T11:32:44.386Z,40.84
2023-05-19T11:35:11.185Z,40.96
2023-05-19T11:37:37.860Z,42.45
2023-05-19T11:40:07.160Z,40.87
2023-05-19T11:42:34.972Z,40.67
2023-05-19T11:45:01.645Z,41.08
2023-05-19T11:47:28.293Z,40.24
2023-05-19T11:49:56.696Z,40.94
2023-05-19T11:52:24.411Z,40.91
2023-05-19T11:54:51.571Z,39.72
2023-05-19T11:57:30.109Z,41.19
2023-05-19T11:59:57.256Z,40.42
2023-05-19T12:02:25.353Z,40.91
2023-05-19T12:04:52.547Z,41.03
2023-05-19T12:07:22.837Z,40.83
2023-05-19T12:09:51.736Z,40.82
2023-05-19T12:12:20.108Z,39.62
2023-05-19T12:14:47.889Z,39.97
2023-05-19T12:17:16.710Z,41.36
2023-05-19T12:19:44.768Z,40.80
2023-05-19T12:22:11.758Z,40.11
2023-05-19T12:24:40.087Z,42.41
2023-05-19T12:27:28.676Z,40.68
2023-05-19T12:30:00.096Z,41.04
2023-05-19T12:32:28.682Z,39.63
2023-05-19T12:34:58.790Z,39.93
2023-05-19T12:37:30.092Z,41.81
2023-05-19T12:39:57.298Z,42.25
2023-05-19T12:42:26.469Z,41.17
2023-05-19T12:44:54.769Z,41.45
2023-05-19T12:47:22.509Z,41.61
2023-05-19T12:49:59.003Z,41.22
2023-05-19T12:52:28.981Z,42.13
2023-05-19T12:55:05.107Z,42.03
2023-05-19T12:57:37.129Z,42.05
2023-05-19T13:00:17.628Z,42.66
2023-05-19T13:03:02.847Z,42.04
2023-05-19T13:05:31.492Z,42.61
2023-05-19T13:08:00.179Z,42.28
2023-05-19T13:10:27.702Z,41.33
2023-05-19T13:13:00.294Z,40.75
2023-05-19T13:15:32.118Z,41.35
2023-05-19T13:17:59.978Z,41.47
2023-05-19T13:20:28.507Z,41.89
2023-05-19T13:22:56.095Z,41.39
2023-05-19T13:25:23.051Z,41.87
2023-05-19T13:27:49.717Z,42.50
2023-05-19T13:30:18.391Z,42.88
2023-05-19T13:32:46.057Z,42.25
2023-05-19T13:35:13.902Z,42.42
2023-05-19T13:37:42.023Z,42.68
2023-05-19T13:40:10.490Z,43.17
2023-05-19T13:42:38.112Z,41.93
2023-05-19T13:45:05.107Z,42.06
2023-05-19T13:47:31.707Z,44.72
2023-05-19T13:49:58.284Z,43.99
2023-05-19T13:52:25.292Z,44.33
2023-05-19T13:54:54.553Z,43.51
2023-05-19T13:57:24.100Z,43.77
2023-05-19T14:00:01.801Z,44.09
2023-05-19T14:02:30.526Z,43.37
2023-05-19T14:04:57.569Z,43.98
2023-05-19T14:07:24.300Z,44.11
2023-05-19T14:09:52.304Z,44.04
2023-05-19T14:12:19.346Z,44.31
2023-05-19T14:14:49.001Z,42.40
2023-05-19T14:17:15.962Z,43.59
2023-05-19T14:19:42.474Z,44.02
2023-05-19T14:22:09.047Z,43.69
2023-05-19T14:24:35.630Z,45.01
2023-05-19T14:27:02.293Z,44.85
2023-05-19T14:29:31.067Z,44.94
2023-05-19T14:31:57.678Z,44.39
2023-05-19T14:34:24.315Z,43.29
2023-05-19T14:36:50.962Z,44.95
2023-05-19T14:39:17.519Z,46.00
2023-05-19T14:41:44.061Z,45.88
2023-05-19T14:44:10.659Z,44.99
2023-05-19T14:46:37.178Z,46.35
2023-05-19T14:49:04.252Z,45.88
2023-05-19T14:51:32.866Z,44.98
2023-05-19T14:54:00.477Z,45.88
2023-05-19T14:56:28.028Z,45.44
2023-05-19T14:58:54.572Z,45.83
2023-05-19T15:01:21.211Z,46.59
2023-05-19T15:03:47.860Z,45.83
2023-05-19T15:06:14.545Z,45.67
2023-05-19T15:08:43.067Z,46.79
2023-05-19T15:11:09.605Z,46.43
2023-05-19T15:13:36.184Z,45.92
2023-05-19T15:16:16.876Z,46.58
2023-05-19T15:18:44.586Z,46.73
2023-05-19T15:21:11.134Z,47.44
2023-05-19T15:23:37.902Z,47.14
2023-05-19T15:26:05.736Z,47.16
2023-05-19T15:28:32.308Z,48.80
2023-05-19T15:30:58.984Z,48.44
2023-05-19T15:33:25.690Z,48.08
2023-05-19T15:35:53.348Z,48.84
2023-05-19T15:38:20.185Z,50.12
2023-05-19T15:40:46.951Z,48.54
2023-05-19T15:43:13.958Z,47.90
2023-05-19T15:45:40.952Z,48.25
2023-05-19T15:48:07.636Z,48.36
2023-05-19T15:50:34.677Z,48.09
2023-05-19T15:53:01.506Z,48.75
2023-05-19T15:55:28.115Z,48.41
2023-05-19T15:57:54.595Z,49.29
2023-05-19T16:00:21.328Z,49.36
2023-05-19T16:02:47.965Z,49.88
2023-05-19T16:05:14.594Z,50.23
2023-05-19T16:07:42.228Z,49.75
2023-05-19T16:10:09.259Z,50.47
2023-05-19T16:12:36.756Z,50.95
2023-05-19T16:15:03.711Z,50.70
2023-05-19T16:17:30.390Z,50.69
2023-05-19T16:19:56.968Z,50.63
2023-05-19T16:22:24.806Z,50.68
2023-05-19T16:24:52.124Z,50.85
2023-05-19T16:27:18.834Z,50.82
2023-05-19T16:29:45.353Z,51.74
2023-05-19T16:32:12.385Z,51.63
2023-05-19T16:34:39.078Z,51.51
2023-05-19T16:37:05.659Z,51.63
2023-05-19T16:39:32.217Z,52.30
2023-05-19T16:41:58.690Z,52.80
2023-05-19T16:44:26.334Z,52.62
2023-05-19T16:47:01.130Z,53.10
2023-05-19T16:49:27.605Z,53.65
2023-05-19T16:51:54.271Z,53.51
2023-05-19T16:54:21.252Z,53.27
2023-05-19T16:56:48.340Z,54.09
2023-05-19T16:59:14.914Z,53.82
2023-05-19T17:01:45.766Z,53.77
2023-05-19T17:04:12.280Z,53.89
2023-05-19T17:06:38.776Z,54.60
2023-05-19T17:09:05.280Z,54.88
2023-05-19T17:11:31.846Z,54.78
2023-05-19T17:13:59.601Z,54.78
2023-05-19T17:16:26.209Z,54.58
2023-05-19T17:18:52.890Z,55.41
2023-05-19T17:21:19.461Z,55.75
2023-05-19T17:23:46.019Z,54.75
2023-05-19T17:26:12.527Z,55.35
2023-05-19T17:28:39.019Z,56.30
2023-05-19T17:31:12.454Z,55.91
2023-05-19T17:33:39.264Z,55.70
2023-05-19T17:36:06.730Z,55.33
2023-05-19T17:38:34.498Z,55.58
2023-05-19T17:41:02.147Z,56.14
2023-05-19T17:43:28.843Z,56.21
2023-05-19T17:45:55.383Z,56.40
2023-05-19T17:48:21.884Z,56.20
2023-05-19T17:50:49.160Z,56.11
2023-05-19T17:53:16.189Z,56.51
2023-05-19T17:55:51.830Z,57.18
2023-05-19T17:58:19.002Z,56.66
2023-05-19T18:00:45.922Z,58.22
2023-05-19T18:03:12.849Z,58.43
2023-05-19T18:05:40.166Z,58.03
2023-05-19T18:08:09.686Z,58.15
2023-05-19T18:10:40.872Z,59.82
2023-05-19T18:13:09.066Z,58.67
2023-05-19T18:15:36.109Z,59.10
2023-05-19T18:18:04.285Z,59.38
2023-05-19T18:20:31.476Z,59.66
2023-05-19T18:22:58.248Z,60.28
2023-05-19T18:25:24.892Z,61.02
2023-05-19T18:27:51.451Z,60.56
2023-05-19T18:30:18.422Z,60.64
2023-05-19T18:32:45.935Z,61.42
2023-05-19T18:35:13.656Z,61.82
2023-05-19T18:37:41.287Z,61.40
2023-05-19T18:40:08.285Z,62.88
2023-05-19T18:42:34.758Z,62.86
2023-05-19T18:45:01.259Z,62.75
2023-05-19T18:47:27.706Z,63.60
2023-05-19T18:49:54.362Z,64.38
2023-05-19T18:52:21.955Z,64.22
2023-05-19T18:54:48.804Z,64.81
2023-05-19T18:57:15.389Z,65.32
2023-05-19T18:59:41.862Z,65.50
2023-05-19T19:02:08.375Z,66.85
2023-05-19T19:04:34.990Z,65.83
2023-05-19T19:07:01.554Z,67.21
2023-05-19T19:09:28.096Z,67.38
2023-05-19T19:11:55.677Z,68.07
2023-05-19T19:14:24.215Z,68.65
2023-05-19T19:16:50.884Z,68.80
2023-05-19T19:19:18.568Z,70.41
2023-05-19T19:21:45.178Z,71.78
2023-05-19T19:24:13.533Z,71.40
2023-05-19T19:26:41.016Z,72.37
2023-05-19T19:29:07.516Z,73.64
2023-05-19T19:31:34.024Z,73.09
2023-05-19T19:34:03.827Z,73.64
2023-05-19T19:36:32.038Z,72.92
2023-05-19T19:38:58.875Z,73.83
2023-05-19T19:41:26.503Z,73.75
2023-05-19T19:43:53.136Z,74.82
2023-05-19T19:46:19.731Z,75.46
2023-05-19T19:48:46.261Z,77.26
2023-05-19T19:51:12.803Z,78.09
2023-05-19T19:53:39.296Z,78.13
2023-05-19T19:56:07.146Z,77.60
2023-05-19T19:58:33.652Z,77.90
2023-05-19T20:01:03.335Z,79.65
2023-05-19T20:03:30.056Z,80.06
2023-05-19T20:05:57.010Z,79.90
2023-05-19T20:08:24.804Z,79.68
2023-05-19T20:10:51.472Z,79.97
2023-05-19T20:13:19.012Z,80.08
2023-05-19T20:15:47.207Z,81.19
2023-05-19T20:18:13.901Z,82.57
2023-05-19T20:20:41.333Z,82.10
2023-05-19T20:23:09.923Z,82.83
2023-05-19T20:25:54.802Z,82.25
2023-05-19T20:28:29.355Z,83.56
2023-05-19T20:30:55.927Z,82.82
2023-05-19T20:33:22.431Z,83.83
2023-05-19T20:35:48.933Z,84.66
2023-05-19T20:38:15.432Z,84.67
2023-05-19T20:40:41.998Z,84.37
2023-05-19T20:43:08.596Z,84.86
2023-05-19T20:45:35.352Z,85.61
2023-05-19T20:48:03.693Z,85.07
2023-05-19T20:50:30.687Z,85.89
2023-05-19T20:52:57.285Z,86.63
2023-05-19T20:55:23.816Z,86.29
2023-05-19T20:57:50.367Z,87.05
2023-05-19T21:00:17.205Z,87.30
2023-05-19T21:02:44.887Z,86.84
2023-05-19T21:05:11.633Z,87.47
2023-05-19T21:07:38.250Z,87.66
2023-05-19T21:10:05.197Z,87.57
2023-05-19T21:12:34.249Z,87.55
2023-05-19T21:15:01.700Z,89.07
2023-05-19T21:17:28.265Z,88.34
2023-05-19T21:19:58.007Z,89.26
2023-05-19T21:22:26.129Z,87.58
2023-05-19T21:24:53.729Z,90.27
2023-05-19T21:27:20.264Z,90.56
2023-05-19T21:29:46.977Z,91.79
2023-05-19T21:32:13.450Z,91.95
2023-05-19T21:34:40.014Z,91.68
2023-05-19T21:37:06.616Z,92.42
2023-05-19T21:39:33.126Z,93.71
2023-05-19T21:41:59.620Z,94.92
2023-05-19T21:44:27.153Z,93.96
2023-05-19T21:46:53.719Z,95.65
2023-05-19T21:49:21.391Z,96.28
2023-05-19T21:51:47.927Z,96.44
2023-05-19T21:54:15.449Z,98.41
2023-05-19T21:56:41.923Z,96.19
2023-05-19T21:59:09.179Z,97.23
2023-05-19T22:01:35.711Z,97.46
2023-05-19T22:04:02.374Z,97.63
2023-05-19T22:06:29.002Z,99.29
2023-05-19T22:08:55.780Z,99.43
2023-05-19T22:11:22.773Z,98.90
2023-05-19T22:13:50.092Z,97.90
2023-05-19T22:16:16.640Z,99.82
2023-05-19T22:18:43.346Z,100.00
2023-05-19T22:21:09.882Z,100.00
2023-05-19T22:23:36.405Z,97.20
2023-05-19T22:26:02.927Z,99.44
2023-05-19T22:28:29.447Z,99.27
2023-05-19T22:30:55.931Z,100.00
2023-05-19T22:33:22.418Z,100.00
2023-05-19T22:35:48.953Z,100.00
2023-05-19T22:38:15.420Z,100.00
2023-05-19T22:40:42.044Z,100.00
2023-05-19T22:43:09.543Z,100.00
2023-05-19T22:45:36.685Z,100.00
2023-05-19T22:48:03.667Z,100.00
2023-05-19T22:50:30.424Z,100.00
2023-05-19T22:52:57.120Z,100.00
2023-05-19T22:55:23.769Z,100.00
2023-05-19T22:57:50.404Z,100.00
2023-05-19T23:00:21.026Z,100.00
2023-05-19T23:02:47.625Z,100.00
2023-05-19T23:05:15.151Z,100.00
2023-05-19T23:07:41.662Z,100.00
2023-05-19T23:10:09.394Z,100.00
2023-05-19T23:12:36.037Z,100.00
2023-05-19T23:15:04.934Z,100.00
2023-05-19T23:17:31.537Z,100.00
2023-05-19T23:19:58.018Z,100.00
2023-05-19T23:22:24.578Z,100.00
2023-05-19T23:24:52.115Z,100.00
2023-05-19T23:27:18.646Z,100.00
2023-05-19T23:29:49.101Z,100.00
2023-05-19T23:32:16.026Z,100.00
2023-05-19T23:34:42.646Z,100.00
2023-05-19T23:37:09.130Z,100.00
2023-05-19T23:39:35.674Z,100.00
2023-05-19T23:42:02.129Z,100.00
2023-05-19T23:44:28.614Z,100.00
2023-05-19T23:46:55.163Z,100.00
2023-05-19T23:49:22.022Z,100.00
2023-05-19T23:51:48.601Z,100.00
2023-05-19T23:54:15.090Z,100.00
2023-05-19T23:56:41.613Z,100.00
2023-05-19T23:59:08.138Z,100.00
